createdAt,value
2022-09-27T00:01:34.124Z,10.89
2022-09-27T00:04:01.734Z,10.85
2022-09-27T00:06:31.242Z,10.87
2022-09-27T00:08:58.732Z,10.89
2022-09-27T00:11:35.232Z,10.93
2022-09-27T00:14:02.522Z,10.84
2022-09-27T00:16:31.163Z,10.80
2022-09-27T00:19:02.146Z,10.92
2022-09-27T00:21:30.680Z,10.76
2022-09-27T00:23:58.092Z,10.75
2022-09-27T00:26:25.494Z,10.70
2022-09-27T00:28:52.296Z,10.92
2022-09-27T00:31:29.465Z,10.94
2022-09-27T00:33:58.181Z,10.84
2022-09-27T00:36:26.565Z,10.89
2022-09-27T00:38:53.520Z,10.83
2022-09-27T00:41:32.213Z,10.88
2022-09-27T00:44:18.918Z,10.94
2022-09-27T00:46:49.120Z,10.91
2022-09-27T00:49:23.342Z,10.88
2022-09-27T00:51:52.483Z,10.90
2022-09-27T00:54:19.865Z,10.92
2022-09-27T00:56:46.834Z,10.91
2022-09-27T00:59:48.842Z,10.88
2022-09-27T01:02:15.712Z,10.86
2022-09-27T01:04:42.915Z,10.93
2022-09-27T01:07:09.586Z,10.89
2022-09-27T01:09:36.175Z,10.90
2022-09-27T01:12:23.589Z,10.89
2022-09-27T01:15:05.539Z,10.89
2022-09-27T01:18:09.134Z,10.85
2022-09-27T01:20:45.310Z,10.87
2022-09-27T01:23:39.431Z,10.85
2022-09-27T01:26:22.691Z,10.88
2022-09-27T01:29:06.027Z,10.97
2022-09-27T01:32:14.717Z,10.98
2022-09-27T01:34:45.357Z,10.98
2022-09-27T01:37:24.179Z,10.89
2022-09-27T01:40:04.485Z,10.84
2022-09-27T01:42:50.883Z,10.97
2022-09-27T01:45:26.687Z,10.87
2022-09-27T01:47:56.846Z,10.83
2022-09-27T01:50:34.264Z,11.03
2022-09-27T01:53:07.122Z,10.88
2022-09-27T01:55:37.661Z,10.92
2022-09-27T01:58:14.046Z,10.91
2022-09-27T02:00:42.762Z,10.78
2022-09-27T02:03:14.746Z,10.81
2022-09-27T02:05:45.776Z,10.85
2022-09-27T02:08:41.861Z,10.82
2022-09-27T02:11:12.435Z,10.84
2022-09-27T02:13:44.327Z,10.79
2022-09-27T02:16:20.057Z,10.70
2022-09-27T02:19:09.228Z,10.86
2022-09-27T02:21:41.936Z,10.90
2022-09-27T02:24:12.401Z,10.78
2022-09-27T02:26:44.632Z,10.70
2022-09-27T02:29:23.460Z,10.73
2022-09-27T02:31:50.112Z,10.78
2022-09-27T02:34:20.386Z,10.78
2022-09-27T02:36:48.486Z,10.74
2022-09-27T02:39:15.633Z,10.71
2022-09-27T02:41:42.336Z,10.73
2022-09-27T02:44:11.360Z,10.71
2022-09-27T02:46:53.854Z,10.75
2022-09-27T02:49:35.672Z,10.80
2022-09-27T02:52:56.242Z,10.80
2022-09-27T02:55:41.401Z,10.71
2022-09-27T02:58:17.626Z,10.76
2022-09-27T03:01:06.157Z,10.73
2022-09-27T03:03:46.215Z,10.65
2022-09-27T03:06:14.789Z,10.82
2022-09-27T03:08:41.967Z,10.78
2022-09-27T03:11:08.609Z,10.82
2022-09-27T03:13:50.203Z,10.87
2022-09-27T03:16:25.435Z,10.81
2022-09-27T03:18:52.054Z,10.88
2022-09-27T03:21:18.663Z,10.99
2022-09-27T03:23:45.292Z,10.93
2022-09-27T03:26:13.178Z,10.95
2022-09-27T03:28:40.007Z,10.88
2022-09-27T03:31:06.813Z,10.89
2022-09-27T03:33:33.635Z,10.86
2022-09-27T03:36:00.412Z,10.90
2022-09-27T03:38:27.001Z,10.88
2022-09-27T03:40:53.823Z,10.86
2022-09-27T03:43:20.488Z,10.89
2022-09-27T03:45:47.689Z,10.90
2022-09-27T03:48:14.442Z,10.87
2022-09-27T03:50:41.133Z,10.86
2022-09-27T03:53:07.935Z,10.89
2022-09-27T03:55:35.387Z,11.00
2022-09-27T03:58:02.196Z,10.97
2022-09-27T04:00:28.852Z,10.99
2022-09-27T04:02:55.532Z,11.04
2022-09-27T04:05:22.312Z,10.87
2022-09-27T04:07:49.654Z,10.87
2022-09-27T04:10:16.848Z,10.82
2022-09-27T04:12:44.428Z,10.86
2022-09-27T04:15:11.671Z,10.79
2022-09-27T04:17:40.908Z,10.75
2022-09-27T04:20:07.826Z,10.74
2022-09-27T04:22:34.500Z,10.69
2022-09-27T04:25:01.125Z,10.74
2022-09-27T04:27:27.780Z,10.77
2022-09-27T04:29:54.399Z,10.63
2022-09-27T04:32:21.010Z,10.67
2022-09-27T04:35:06.253Z,10.57
2022-09-27T04:37:33.137Z,10.61
2022-09-27T04:39:59.800Z,10.53
2022-09-27T04:42:28.665Z,10.57
2022-09-27T04:44:55.541Z,10.52
2022-09-27T04:47:22.191Z,10.42
2022-09-27T04:49:49.667Z,10.42
2022-09-27T04:52:16.327Z,10.44
2022-09-27T04:54:42.985Z,10.45
2022-09-27T04:57:09.650Z,10.43
2022-09-27T04:59:36.311Z,10.32
2022-09-27T05:02:03.117Z,10.35
2022-09-27T05:04:30.216Z,10.36
2022-09-27T05:06:57.414Z,10.46
2022-09-27T05:09:24.165Z,10.48
2022-09-27T05:11:50.812Z,10.52
2022-09-27T05:14:17.499Z,10.46
2022-09-27T05:16:44.717Z,10.51
2022-09-27T05:19:11.520Z,10.36
2022-09-27T05:21:38.198Z,10.48
2022-09-27T05:24:04.900Z,10.57
2022-09-27T05:26:31.517Z,10.52
2022-09-27T05:28:58.123Z,10.46
2022-09-27T05:31:26.529Z,10.45
2022-09-27T05:33:53.238Z,10.52
2022-09-27T05:36:20.821Z,10.50
2022-09-27T05:38:47.644Z,10.55
2022-09-27T05:41:14.352Z,10.48
2022-09-27T05:43:41.354Z,10.43
2022-09-27T05:46:08.085Z,10.62
2022-09-27T05:48:34.795Z,10.60
2022-09-27T05:51:01.437Z,10.62
2022-09-27T05:53:28.061Z,10.60
2022-09-27T05:55:54.771Z,10.76
2022-09-27T05:58:21.381Z,10.70
2022-09-27T06:00:48.036Z,10.77
2022-09-27T06:03:14.633Z,10.80
2022-09-27T06:05:41.356Z,10.81
2022-09-27T06:08:10.689Z,10.82
2022-09-27T06:10:38.682Z,10.81
2022-09-27T06:13:12.200Z,10.79
2022-09-27T06:15:40.428Z,10.94
2022-09-27T06:18:10.398Z,10.89
2022-09-27T06:20:38.223Z,10.87
2022-09-27T06:23:10.150Z,10.92
2022-09-27T06:25:37.408Z,10.84
2022-09-27T06:28:04.455Z,10.87
2022-09-27T06:30:31.684Z,10.92
2022-09-27T06:33:03.083Z,10.94
2022-09-27T06:35:31.177Z,11.02
2022-09-27T06:37:57.871Z,11.05
2022-09-27T06:40:26.297Z,11.10
2022-09-27T06:42:53.973Z,11.08
2022-09-27T06:45:20.831Z,11.05
2022-09-27T06:47:47.426Z,11.28
2022-09-27T06:50:14.494Z,11.27
2022-09-27T06:52:47.934Z,11.38
2022-09-27T06:55:15.254Z,11.36
2022-09-27T06:58:00.601Z,11.40
2022-09-27T07:00:27.692Z,11.43
2022-09-27T07:02:58.489Z,11.30
2022-09-27T07:05:25.908Z,11.40
2022-09-27T07:07:56.003Z,11.53
2022-09-27T07:10:22.724Z,11.59
2022-09-27T07:12:49.363Z,11.49
2022-09-27T07:15:16.058Z,11.48
2022-09-27T07:17:42.740Z,11.50
2022-09-27T07:20:09.425Z,11.63
2022-09-27T07:22:45.927Z,11.73
2022-09-27T07:25:12.676Z,11.76
2022-09-27T07:27:42.083Z,11.80
2022-09-27T07:30:09.937Z,11.81
2022-09-27T07:32:36.958Z,11.77
2022-09-27T07:35:08.189Z,11.77
2022-09-27T07:37:36.334Z,11.71
2022-09-27T07:40:07.280Z,11.71
2022-09-27T07:42:34.017Z,11.76
2022-09-27T07:45:00.647Z,11.80
2022-09-27T07:47:27.585Z,11.74
2022-09-27T07:49:54.529Z,11.83
2022-09-27T07:52:21.184Z,11.77
2022-09-27T07:54:48.173Z,11.74
2022-09-27T07:57:15.514Z,11.69
2022-09-27T07:59:42.320Z,11.70
2022-09-27T08:02:15.157Z,11.75
2022-09-27T08:04:43.648Z,11.82
2022-09-27T08:07:14.267Z,11.80
2022-09-27T08:09:41.302Z,11.89
2022-09-27T08:12:08.375Z,11.87
2022-09-27T08:14:50.025Z,11.91
2022-09-27T08:17:17.417Z,11.83
2022-09-27T08:19:45.290Z,11.84
2022-09-27T08:22:16.195Z,11.96
2022-09-27T08:24:43.056Z,12.15
2022-09-27T08:27:11.919Z,12.12
2022-09-27T08:29:41.948Z,12.15
2022-09-27T08:32:09.675Z,12.22
2022-09-27T08:34:36.907Z,12.16
2022-09-27T08:37:03.670Z,12.17
2022-09-27T08:39:31.136Z,12.11
2022-09-27T08:42:28.390Z,12.02
2022-09-27T08:45:09.041Z,12.11
2022-09-27T08:47:41.175Z,12.08
2022-09-27T08:50:30.841Z,12.07
2022-09-27T08:53:01.088Z,12.00
2022-09-27T08:55:37.279Z,12.06
2022-09-27T08:58:12.362Z,12.05
2022-09-27T09:00:39.374Z,12.03
2022-09-27T09:03:06.031Z,12.02
2022-09-27T09:05:38.219Z,12.02
2022-09-27T09:08:19.891Z,11.93
2022-09-27T09:11:27.255Z,11.87
2022-09-27T09:14:13.338Z,11.82
2022-09-27T09:16:52.600Z,11.88
2022-09-27T09:19:35.780Z,11.95
2022-09-27T09:22:06.101Z,11.92
2022-09-27T09:24:54.499Z,11.83
2022-09-27T09:27:34.243Z,11.78
2022-09-27T09:30:20.875Z,11.86
2022-09-27T09:33:01.238Z,11.89
2022-09-27T09:35:34.394Z,11.86
2022-09-27T09:38:06.142Z,11.87
2022-09-27T09:40:48.659Z,11.83
2022-09-27T09:43:21.883Z,11.79
2022-09-27T09:45:51.942Z,11.80
2022-09-27T09:48:32.906Z,11.82
2022-09-27T09:51:01.407Z,11.77
2022-09-27T09:53:34.017Z,11.83
2022-09-27T09:56:07.501Z,11.87
2022-09-27T09:58:45.012Z,11.70
2022-09-27T10:01:21.143Z,11.78
2022-09-27T10:03:48.060Z,11.71
2022-09-27T10:06:16.169Z,11.73
2022-09-27T10:08:43.008Z,11.66
2022-09-27T10:11:23.134Z,11.88
2022-09-27T10:13:49.856Z,11.95
2022-09-27T10:16:18.697Z,11.97
2022-09-27T10:18:49.817Z,12.04
2022-09-27T10:21:22.942Z,12.13
2022-09-27T10:24:04.655Z,12.04
2022-09-27T10:26:32.328Z,12.06
2022-09-27T10:29:24.835Z,12.22
2022-09-27T10:31:52.159Z,12.27
2022-09-27T10:34:31.453Z,12.33
2022-09-27T10:37:10.305Z,12.42
2022-09-27T10:39:37.639Z,12.52
2022-09-27T10:42:34.816Z,12.62
2022-09-27T10:45:29.774Z,12.70
2022-09-27T10:47:57.707Z,12.81
2022-09-27T10:50:49.061Z,12.83
2022-09-27T10:53:15.926Z,12.81
2022-09-27T10:55:43.421Z,12.86
2022-09-27T10:58:19.044Z,12.85
2022-09-27T11:00:58.442Z,12.81
2022-09-27T11:03:26.521Z,12.79
2022-09-27T11:05:54.768Z,12.80
2022-09-27T11:08:30.589Z,12.86
2022-09-27T11:11:27.140Z,12.95
2022-09-27T11:14:03.101Z,13.12
2022-09-27T11:16:41.766Z,13.34
2022-09-27T11:19:34.824Z,13.42
2022-09-27T11:22:24.542Z,13.48
2022-09-27T11:25:19.371Z,13.46
2022-09-27T11:27:59.112Z,13.42
2022-09-27T11:30:33.650Z,13.39
2022-09-27T11:33:12.217Z,13.43
2022-09-27T11:35:53.235Z,13.38
2022-09-27T11:38:48.402Z,13.51
2022-09-27T11:41:30.129Z,13.57
2022-09-27T11:44:09.623Z,13.62
2022-09-27T11:46:41.554Z,13.64
2022-09-27T11:49:46.402Z,13.80
2022-09-27T11:52:20.134Z,13.84
2022-09-27T11:54:56.649Z,13.96
2022-09-27T11:57:31.632Z,14.00
2022-09-27T12:00:06.899Z,14.18
2022-09-27T12:02:54.664Z,14.39
2022-09-27T12:05:25.723Z,14.59
2022-09-27T12:08:11.082Z,14.44
2022-09-27T12:10:40.449Z,14.70
2022-09-27T12:13:12.128Z,14.97
2022-09-27T12:15:42.199Z,14.93
2022-09-27T12:18:25.069Z,14.82
2022-09-27T12:20:52.227Z,14.50
2022-09-27T12:23:45.320Z,14.40
2022-09-27T12:26:25.561Z,14.22
2022-09-27T12:29:02.997Z,13.97
2022-09-27T12:31:56.138Z,13.80
2022-09-27T12:34:28.179Z,13.68
2022-09-27T12:37:05.807Z,13.71
2022-09-27T12:40:00.551Z,13.35
2022-09-27T12:42:35.058Z,12.99
2022-09-27T12:45:01.941Z,12.77
2022-09-27T12:47:37.027Z,12.67
2022-09-27T12:50:40.929Z,12.53
2022-09-27T12:53:22.839Z,12.46
2022-09-27T12:56:03.031Z,12.26
2022-09-27T12:58:33.253Z,12.16
2022-09-27T13:01:14.104Z,12.09
2022-09-27T13:03:51.441Z,11.94
2022-09-27T13:06:50.032Z,11.88
2022-09-27T13:09:40.615Z,11.93
2022-09-27T13:12:13.322Z,11.80
2022-09-27T13:14:54.677Z,11.70
2022-09-27T13:17:40.830Z,11.84
2022-09-27T13:20:35.520Z,11.71
2022-09-27T13:23:05.743Z,11.72
2022-09-27T13:25:55.966Z,11.63
2022-09-27T13:28:32.158Z,11.66
2022-09-27T13:30:59.672Z,11.68
2022-09-27T13:33:50.391Z,11.70
2022-09-27T13:36:17.007Z,11.78
2022-09-27T13:39:01.842Z,11.90
2022-09-27T13:41:45.175Z,11.98
2022-09-27T13:44:17.868Z,12.07
2022-09-27T13:46:55.512Z,12.13
2022-09-27T13:49:31.249Z,12.22
2022-09-27T13:52:05.378Z,12.21
2022-09-27T13:54:36.110Z,12.28
2022-09-27T13:57:02.780Z,12.20
2022-09-27T13:59:52.785Z,12.21
2022-09-27T14:02:23.821Z,12.21
2022-09-27T14:04:51.514Z,12.25
2022-09-27T14:07:22.501Z,12.27
2022-09-27T14:09:52.864Z,12.34
2022-09-27T14:12:22.440Z,12.49
2022-09-27T14:14:50.781Z,12.44
2022-09-27T14:17:17.421Z,12.26
2022-09-27T14:19:44.727Z,12.18
2022-09-27T14:22:16.450Z,12.24
2022-09-27T14:24:42.954Z,12.29
2022-09-27T14:27:27.128Z,12.29
2022-09-27T14:30:17.822Z,12.28
2022-09-27T14:32:55.691Z,12.34
2022-09-27T14:35:43.459Z,12.46
2022-09-27T14:38:36.533Z,12.42
2022-09-27T14:41:07.481Z,12.46
2022-09-27T14:43:35.740Z,12.44
2022-09-27T14:46:07.777Z,12.48
2022-09-27T14:48:36.422Z,12.54
2022-09-27T14:51:06.843Z,12.50
2022-09-27T14:53:41.161Z,12.36
2022-09-27T14:56:13.593Z,12.33
2022-09-27T14:58:47.584Z,12.44
2022-09-27T15:01:20.291Z,12.21
2022-09-27T15:03:49.141Z,12.24
2022-09-27T15:06:20.133Z,12.18
2022-09-27T15:08:49.591Z,12.28
2022-09-27T15:11:18.030Z,12.20
2022-09-27T15:13:45.999Z,12.16
2022-09-27T15:16:18.871Z,12.35
2022-09-27T15:18:50.814Z,12.30
2022-09-27T15:21:33.595Z,12.38
2022-09-27T15:24:01.910Z,12.32
2022-09-27T15:26:42.141Z,12.33
2022-09-27T15:29:23.840Z,12.26
2022-09-27T15:32:04.982Z,12.22
2022-09-27T15:34:34.308Z,12.19
2022-09-27T15:37:06.400Z,12.12
2022-09-27T15:39:32.967Z,12.02
2022-09-27T15:42:05.828Z,11.98
2022-09-27T15:44:44.668Z,11.95
2022-09-27T15:47:38.652Z,12.02
2022-09-27T15:50:17.490Z,11.95
2022-09-27T15:52:47.431Z,11.99
2022-09-27T15:55:14.950Z,11.90
2022-09-27T15:57:41.999Z,11.86
2022-09-27T16:00:13.697Z,11.82
2022-09-27T16:02:40.326Z,11.90
2022-09-27T16:05:07.141Z,11.78
2022-09-27T16:07:33.771Z,11.81
2022-09-27T16:10:00.442Z,11.70
2022-09-27T16:12:30.148Z,11.63
2022-09-27T16:14:56.923Z,11.65
2022-09-27T16:17:23.634Z,11.70
2022-09-27T16:19:50.593Z,11.62
2022-09-27T16:22:17.250Z,11.56
2022-09-27T16:24:43.920Z,11.60
2022-09-27T16:27:10.604Z,11.70
2022-09-27T16:29:39.267Z,11.73
2022-09-27T16:32:09.590Z,11.68
2022-09-27T16:34:36.284Z,11.55
2022-09-27T16:37:05.129Z,11.41
2022-09-27T16:39:31.900Z,11.32
2022-09-27T16:41:59.875Z,11.30
2022-09-27T16:44:26.503Z,11.31
2022-09-27T16:46:53.238Z,11.19
2022-09-27T16:49:38.656Z,11.11
2022-09-27T16:52:07.857Z,11.09
2022-09-27T16:54:35.014Z,10.97
2022-09-27T16:57:01.878Z,10.92
2022-09-27T16:59:28.566Z,10.86
2022-09-27T17:01:58.524Z,10.78
2022-09-27T17:04:26.182Z,10.62
2022-09-27T17:06:52.834Z,10.58
2022-09-27T17:09:20.664Z,10.54
2022-09-27T17:11:47.407Z,10.49
2022-09-27T17:14:17.271Z,10.42
2022-09-27T17:16:44.619Z,10.40
2022-09-27T17:19:16.848Z,10.34
2022-09-27T17:21:44.885Z,10.40
2022-09-27T17:24:11.824Z,10.32
2022-09-27T17:26:38.572Z,10.18
2022-09-27T17:29:05.173Z,10.15
2022-09-27T17:31:34.843Z,10.10
2022-09-27T17:34:02.840Z,10.07
2022-09-27T17:36:33.604Z,10.01
2022-09-27T17:39:00.732Z,10.01
2022-09-27T17:41:28.782Z,10.04
2022-09-27T17:44:00.469Z,10.05
2022-09-27T17:46:29.375Z,10.01
2022-09-27T17:49:14.975Z,9.99
2022-09-27T17:51:42.407Z,10.01
2022-09-27T17:54:10.471Z,9.99
2022-09-27T17:56:41.109Z,10.00
2022-09-27T17:59:08.725Z,10.05
2022-09-27T18:01:38.282Z,10.07
2022-09-27T18:04:08.832Z,10.21
2022-09-27T18:06:40.155Z,10.27
2022-09-27T18:09:08.866Z,10.19
2022-09-27T18:11:36.171Z,10.19
2022-09-27T18:14:03.767Z,10.15
2022-09-27T18:16:35.023Z,10.18
2022-09-27T18:19:03.769Z,10.11
2022-09-27T18:21:31.542Z,10.05
2022-09-27T18:24:00.127Z,10.05
2022-09-27T18:26:29.078Z,10.02
2022-09-27T18:29:01.020Z,9.96
2022-09-27T18:31:27.812Z,9.93
2022-09-27T18:33:54.426Z,9.91
2022-09-27T18:36:23.562Z,9.91
2022-09-27T18:39:15.719Z,9.99
2022-09-27T18:41:42.561Z,9.92
2022-09-27T18:44:14.127Z,9.90
2022-09-27T18:46:41.067Z,9.99
2022-09-27T18:49:10.822Z,9.88
2022-09-27T18:51:41.162Z,9.96
2022-09-27T18:54:19.724Z,9.91
2022-09-27T18:56:47.681Z,9.84
2022-09-27T18:59:15.000Z,9.86
2022-09-27T19:01:45.168Z,9.71
2022-09-27T19:04:14.242Z,9.73
2022-09-27T19:06:41.870Z,9.64
2022-09-27T19:09:08.901Z,9.68
2022-09-27T19:11:35.611Z,9.62
2022-09-27T19:14:02.291Z,9.66
2022-09-27T19:16:29.624Z,9.65
2022-09-27T19:18:56.490Z,9.54
2022-09-27T19:21:25.732Z,9.50
2022-09-27T19:23:52.710Z,9.54
2022-09-27T19:26:21.280Z,9.54
2022-09-27T19:28:48.680Z,9.66
2022-09-27T19:31:17.963Z,9.64
2022-09-27T19:33:44.655Z,9.78
2022-09-27T19:36:15.813Z,9.68
2022-09-27T19:38:42.967Z,9.64
2022-09-27T19:41:11.185Z,9.53
2022-09-27T19:43:38.146Z,9.45
2022-09-27T19:46:24.481Z,9.52
2022-09-27T19:48:51.770Z,9.47
2022-09-27T19:51:22.010Z,9.44
2022-09-27T19:53:49.543Z,9.40
2022-09-27T19:56:16.163Z,9.36
2022-09-27T19:58:43.132Z,9.37
2022-09-27T20:01:20.892Z,9.39
2022-09-27T20:03:48.928Z,9.43
2022-09-27T20:06:17.467Z,9.37
2022-09-27T20:08:44.116Z,9.35
2022-09-27T20:11:12.727Z,9.35
2022-09-27T20:13:40.379Z,9.32
2022-09-27T20:16:09.192Z,9.27
2022-09-27T20:18:49.157Z,9.31
2022-09-27T20:21:17.189Z,9.36
2022-09-27T20:23:44.298Z,9.34
2022-09-27T20:26:15.633Z,9.31
2022-09-27T20:28:47.977Z,9.28
2022-09-27T20:31:17.254Z,9.28
2022-09-27T20:33:46.329Z,9.43
2022-09-27T20:36:24.806Z,9.43
2022-09-27T20:39:02.000Z,9.32
2022-09-27T20:41:31.298Z,9.36
2022-09-27T20:44:00.352Z,9.30
2022-09-27T20:46:27.518Z,9.32
2022-09-27T20:48:59.079Z,9.23
2022-09-27T20:51:27.423Z,9.25
2022-09-27T20:53:54.585Z,9.22
2022-09-27T20:56:29.904Z,9.25
2022-09-27T20:58:58.372Z,9.22
2022-09-27T21:01:26.007Z,9.22
2022-09-27T21:04:00.943Z,9.22
2022-09-27T21:06:28.030Z,9.22
2022-09-27T21:08:57.723Z,9.21
2022-09-27T21:11:25.031Z,9.23
2022-09-27T21:13:52.383Z,9.29
2022-09-27T21:16:21.759Z,9.23
2022-09-27T21:18:50.803Z,9.23
2022-09-27T21:21:17.997Z,9.17
2022-09-27T21:23:46.032Z,9.14
2022-09-27T21:26:17.855Z,9.18
2022-09-27T21:28:52.598Z,9.05
2022-09-27T21:31:23.003Z,9.01
2022-09-27T21:33:54.086Z,9.05
2022-09-27T21:36:23.089Z,9.01
2022-09-27T21:38:53.017Z,8.96
2022-09-27T21:41:19.982Z,8.93
2022-09-27T21:43:47.872Z,8.92
2022-09-27T21:46:18.032Z,8.95
2022-09-27T21:48:47.278Z,8.89
2022-09-27T21:51:19.409Z,8.93
2022-09-27T21:53:57.159Z,8.88
2022-09-27T21:56:25.823Z,8.94
2022-09-27T21:58:52.562Z,8.88
2022-09-27T22:01:24.153Z,8.85
2022-09-27T22:03:51.975Z,8.89
2022-09-27T22:06:29.346Z,8.88
2022-09-27T22:08:57.287Z,8.87
2022-09-27T22:11:25.997Z,8.87
2022-09-27T22:13:52.925Z,8.81
2022-09-27T22:16:20.713Z,8.87
2022-09-27T22:18:49.639Z,8.79
2022-09-27T22:21:18.519Z,8.79
2022-09-27T22:23:45.702Z,8.72
2022-09-27T22:26:19.579Z,8.73
2022-09-27T22:28:50.089Z,8.71
2022-09-27T22:31:18.946Z,8.76
2022-09-27T22:33:57.537Z,8.74
2022-09-27T22:36:27.247Z,8.72
2022-09-27T22:38:54.555Z,8.76
2022-09-27T22:41:21.228Z,8.69
2022-09-27T22:43:48.062Z,8.70
2022-09-27T22:46:14.859Z,8.65
2022-09-27T22:48:42.270Z,8.68
2022-09-27T22:51:09.257Z,8.69
2022-09-27T22:53:38.857Z,8.74
2022-09-27T22:56:19.615Z,8.69
2022-09-27T22:58:47.670Z,8.66
2022-09-27T23:01:16.875Z,8.71
2022-09-27T23:03:44.040Z,8.65
2022-09-27T23:06:10.758Z,8.61
2022-09-27T23:08:38.752Z,8.59
2022-09-27T23:11:07.982Z,8.61
2022-09-27T23:13:37.688Z,8.55
2022-09-27T23:16:06.246Z,8.55
2022-09-27T23:18:33.495Z,8.55
2022-09-27T23:21:07.037Z,8.64
2022-09-27T23:23:38.063Z,8.50
2022-09-27T23:26:07.390Z,8.49
2022-09-27T23:28:34.273Z,8.48
2022-09-27T23:31:09.343Z,8.52
2022-09-27T23:33:36.987Z,8.44
2022-09-27T23:36:04.422Z,8.43
2022-09-27T23:38:31.864Z,8.46
2022-09-27T23:40:59.358Z,8.51
2022-09-27T23:43:26.400Z,8.50
2022-09-27T23:45:55.130Z,8.48
2022-09-27T23:48:21.921Z,8.45
2022-09-27T23:50:48.634Z,8.53
2022-09-27T23:53:15.340Z,8.48
2022-09-27T23:55:41.935Z,8.43
2022-09-27T23:58:08.554Z,8.53
